Time,TemperatureF,DewpointF,PressureIn,WindDirection,WindDirectionDegrees,WindSpeedMPH,WindSpeedGustMPH,Humidity,HourlyPrecipIn,Conditions,Clouds,dailyrainin,SolarRadiationWatts/m^2,SoftwareType,DateUTC
2013-03-31 00:02:00,51.0,51.0,-100.00,South,178,3.0,8.0,100,0.07,,,0.52,0.000000,,2013-03-31 05:02:00,
2013-03-31 00:32:00,51.0,51.0,-100.00,SSW,196,4.0,8.0,100,0.11,,,0.63,0.000000,,2013-03-31 05:32:00,
2013-03-31 00:42:00,51.0,51.0,-100.00,SSW,196,4.0,8.0,100,0.11,,,0.63,0.000000,,2013-03-31 05:42:00,
2013-03-31 00:53:00,51.0,51.0,-100.00,SSW,196,4.0,8.0,100,0.11,,,0.63,0.000000,,2013-03-31 05:53:00,
2013-03-31 01:02:00,51.0,51.0,-100.00,SSW,196,4.0,8.0,100,0.11,,,0.63,0.000000,,2013-03-31 06:02:00,
2013-03-31 01:33:00,51.0,51.0,-100.00,SW,214,9.0,21.0,100,0.09,,,0.72,0.000000,,2013-03-31 06:33:00,
2013-03-31 01:42:00,51.0,51.0,-100.00,SW,214,9.0,21.0,100,0.09,,,0.72,0.000000,,2013-03-31 06:42:00,
2013-03-31 01:53:00,51.0,51.0,-100.00,SW,214,9.0,21.0,100,0.09,,,0.72,0.000000,,2013-03-31 06:53:00,
2013-03-31 02:02:00,51.0,51.0,-100.00,SW,214,9.0,21.0,100,0.09,,,0.72,0.000000,,2013-03-31 07:02:00,
2013-03-31 03:32:00,52.0,52.0,-100.00,WSW,250,10.0,21.0,100,-99.99,,,0.76,0.000000,,2013-03-31 08:32:00,
2013-03-31 03:42:00,52.0,52.0,-100.00,WSW,250,10.0,21.0,100,-99.99,,,0.76,0.000000,,2013-03-31 08:42:00,
2013-03-31 03:52:00,52.0,52.0,-100.00,WSW,250,10.0,21.0,100,-99.99,,,0.76,0.000000,,2013-03-31 08:52:00,
2013-03-31 04:02:00,52.0,52.0,-100.00,WSW,250,10.0,21.0,100,-99.99,,,0.76,0.000000,,2013-03-31 09:02:00,
2013-03-31 04:33:00,52.0,52.0,-100.00,West,268,6.0,21.0,100,0.01,,,-99.99,0.000000,,2013-03-31 09:33:00,
2013-03-31 04:43:00,52.0,52.0,-100.00,West,268,6.0,21.0,100,0.01,,,-99.99,0.000000,,2013-03-31 09:43:00,
2013-03-31 04:53:00,52.0,52.0,-100.00,West,268,6.0,21.0,100,0.01,,,-99.99,0.000000,,2013-03-31 09:53:00,
2013-03-31 05:03:00,52.0,52.0,-100.00,West,268,6.0,21.0,100,0.01,,,-99.99,0.000000,,2013-03-31 10:03:00,
2013-03-31 05:33:00,52.0,52.0,-100.00,West,269,8.0,17.0,100,0.00,,,0.77,0.000000,,2013-03-31 10:33:00,
2013-03-31 05:42:00,52.0,52.0,-100.00,West,269,8.0,17.0,100,0.00,,,0.77,0.000000,,2013-03-31 10:42:00,
2013-03-31 05:53:00,52.0,52.0,-100.00,West,269,8.0,17.0,100,0.00,,,0.77,0.000000,,2013-03-31 10:53:00,
2013-03-31 06:03:00,52.0,52.0,-100.00,West,269,8.0,17.0,100,0.00,,,0.77,0.000000,,2013-03-31 11:03:00,
2013-03-31 06:33:00,52.0,52.0,-100.00,West,276,5.0,18.0,100,0.00,,,0.77,0.000000,,2013-03-31 11:33:00,
2013-03-31 06:43:00,52.0,52.0,-100.00,West,276,5.0,18.0,100,0.00,,,0.77,0.000000,,2013-03-31 11:43:00,
2013-03-31 06:53:00,52.0,52.0,-100.00,West,276,5.0,18.0,100,0.00,,,0.77,0.000000,,2013-03-31 11:53:00,
2013-03-31 07:03:00,52.0,52.0,-100.00,West,276,5.0,18.0,100,0.00,,,0.77,0.000000,,2013-03-31 12:03:00,
2013-03-31 08:33:00,52.0,52.0,-100.00,West,259,6.0,14.0,100,-99.99,,,0.77,23.000000,,2013-03-31 13:33:00,
2013-03-31 08:42:00,52.0,52.0,-100.00,West,259,6.0,14.0,100,-99.99,,,0.77,23.000000,,2013-03-31 13:42:00,
2013-03-31 08:53:00,52.0,52.0,-100.00,West,259,6.0,14.0,100,-99.99,,,0.77,23.000000,,2013-03-31 13:53:00,
2013-03-31 09:03:00,52.0,52.0,-100.00,West,259,6.0,14.0,100,-99.99,,,0.77,23.000000,,2013-03-31 14:03:00,
2013-03-31 09:33:00,53.0,53.0,-100.00,West,261,4.0,9.0,100,0.00,,,0.77,63.000000,,2013-03-31 14:33:00,
2013-03-31 09:43:00,53.0,53.0,-100.00,West,261,4.0,9.0,100,0.00,,,0.77,63.000000,,2013-03-31 14:43:00,
2013-03-31 09:53:00,53.0,53.0,-100.00,West,261,4.0,9.0,100,0.00,,,0.77,63.000000,,2013-03-31 14:53:00,
2013-03-31 10:03:00,53.0,53.0,-100.00,West,261,4.0,9.0,100,0.00,,,0.77,63.000000,,2013-03-31 15:03:00,
2013-03-31 10:34:00,53.0,53.0,-100.00,SW,225,7.0,12.0,100,0.00,,,0.77,65.000000,,2013-03-31 15:34:00,
2013-03-31 10:44:00,53.0,53.0,-100.00,SW,225,7.0,12.0,100,0.00,,,0.77,65.000000,,2013-03-31 15:44:00,
2013-03-31 10:54:00,53.0,53.0,-100.00,SW,225,7.0,12.0,100,0.00,,,0.77,65.000000,,2013-03-31 15:54:00,
2013-03-31 11:03:00,53.0,53.0,-100.00,SW,225,7.0,12.0,100,0.00,,,0.77,65.000000,,2013-03-31 16:03:00,
2013-03-31 11:34:00,58.0,54.0,-100.00,SW,231,6.0,13.0,85,0.00,,,0.77,399.000000,,2013-03-31 16:34:00,
2013-03-31 11:43:00,58.0,54.0,-100.00,SW,231,6.0,13.0,85,0.00,,,0.77,399.000000,,2013-03-31 16:43:00,
2013-03-31 11:54:00,58.0,54.0,-100.00,SW,231,6.0,13.0,85,0.00,,,0.77,399.000000,,2013-03-31 16:54:00,
2013-03-31 12:03:00,58.0,54.0,-100.00,SW,231,6.0,13.0,85,0.00,,,0.77,399.000000,,2013-03-31 17:03:00,
2013-03-31 12:33:00,58.0,52.0,-100.00,SW,233,4.0,15.0,79,0.00,,,-99.99,447.000000,,2013-03-31 17:33:00,
2013-03-31 12:43:00,58.0,52.0,-100.00,SW,233,4.0,15.0,79,0.00,,,-99.99,447.000000,,2013-03-31 17:43:00,
2013-03-31 12:52:00,58.0,52.0,-100.00,SW,233,4.0,15.0,79,0.00,,,-99.99,447.000000,,2013-03-31 17:52:00,
2013-03-31 13:03:00,58.0,52.0,-100.00,SW,233,4.0,15.0,79,0.00,,,-99.99,447.000000,,2013-03-31 18:03:00,
2013-03-31 13:33:00,54.0,54.0,-100.00,WSW,243,6.0,13.0,100,0.11,,,0.88,94.000000,,2013-03-31 18:33:00,
2013-03-31 13:43:00,54.0,54.0,-100.00,WSW,243,6.0,13.0,100,0.11,,,0.88,94.000000,,2013-03-31 18:43:00,
2013-03-31 13:53:00,54.0,54.0,-100.00,WSW,243,6.0,13.0,100,0.11,,,0.88,94.000000,,2013-03-31 18:53:00,
2013-03-31 14:03:00,54.0,54.0,-100.00,WSW,243,6.0,13.0,100,0.11,,,0.88,94.000000,,2013-03-31 19:03:00,
2013-03-31 14:33:00,56.0,56.0,-100.00,SW,229,5.0,12.0,100,0.08,,,-99.99,233.000000,,2013-03-31 19:33:00,
2013-03-31 14:43:00,56.0,56.0,-100.00,SW,229,5.0,12.0,100,0.08,,,-99.99,233.000000,,2013-03-31 19:43:00,
2013-03-31 14:54:00,56.0,56.0,-100.00,SW,229,5.0,12.0,100,0.08,,,-99.99,233.000000,,2013-03-31 19:54:00,
2013-03-31 15:03:00,56.0,56.0,-100.00,SW,229,5.0,12.0,100,0.08,,,-99.99,233.000000,,2013-03-31 20:03:00,
2013-03-31 15:34:00,56.0,56.0,-100.00,WSW,237,7.0,18.0,100,0.00,,,0.96,133.000000,,2013-03-31 20:34:00,
2013-03-31 15:43:00,56.0,56.0,-100.00,WSW,237,7.0,18.0,100,0.00,,,0.96,133.000000,,2013-03-31 20:43:00,
2013-03-31 15:53:00,56.0,56.0,-100.00,WSW,237,7.0,18.0,100,0.00,,,0.96,133.000000,,2013-03-31 20:53:00,
2013-03-31 16:03:00,56.0,56.0,-100.00,WSW,237,7.0,18.0,100,0.00,,,0.96,133.000000,,2013-03-31 21:03:00,
2013-03-31 16:34:00,56.0,56.0,-100.00,WSW,248,6.0,17.0,100,0.00,,,0.96,163.000000,,2013-03-31 21:34:00,
2013-03-31 16:44:00,56.0,56.0,-100.00,WSW,248,6.0,17.0,100,0.00,,,0.96,163.000000,,2013-03-31 21:44:00,
2013-03-31 16:54:00,56.0,56.0,-100.00,WSW,248,6.0,17.0,100,0.00,,,0.96,163.000000,,2013-03-31 21:54:00,
2013-03-31 17:04:00,56.0,56.0,-100.00,WSW,248,6.0,17.0,100,0.00,,,0.96,163.000000,,2013-03-31 22:04:00,
2013-03-31 17:33:00,56.0,56.0,-100.00,WNW,297,5.0,14.0,99,0.01,,,0.97,82.000000,,2013-03-31 22:33:00,
2013-03-31 17:43:00,56.0,56.0,-100.00,WNW,297,5.0,14.0,99,0.01,,,0.97,82.000000,,2013-03-31 22:43:00,
2013-03-31 17:53:00,56.0,56.0,-100.00,WNW,297,5.0,14.0,99,0.01,,,0.97,82.000000,,2013-03-31 22:53:00,
2013-03-31 18:03:00,56.0,56.0,-100.00,WNW,297,5.0,14.0,99,0.01,,,0.97,82.000000,,2013-03-31 23:03:00,
2013-03-31 18:33:00,55.0,55.0,-100.00,WSW,239,4.0,13.0,100,0.14,,,0.95,26.000000,,2013-03-31 23:33:00,
2013-03-31 18:43:00,55.0,55.0,-100.00,WSW,239,4.0,13.0,100,0.14,,,0.95,26.000000,,2013-03-31 23:43:00,
2013-03-31 18:54:00,55.0,55.0,-100.00,WSW,239,4.0,13.0,100,0.14,,,0.95,26.000000,,2013-03-31 23:54:00,
2013-03-31 19:02:00,55.0,55.0,-100.00,WSW,239,4.0,13.0,100,0.14,,,0.95,26.000000,,2013-04-01 00:02:00,
2013-03-31 19:33:00,55.0,55.0,-100.00,WNW,294,4.0,9.0,100,0.09,,,0.97,6.000000,,2013-04-01 00:33:00,
2013-03-31 19:43:00,55.0,55.0,-100.00,WNW,294,4.0,9.0,100,0.09,,,0.97,6.000000,,2013-04-01 00:43:00,
2013-03-31 19:53:00,55.0,55.0,-100.00,WNW,294,4.0,9.0,100,0.09,,,0.97,6.000000,,2013-04-01 00:53:00,
2013-03-31 20:03:00,55.0,55.0,-100.00,WNW,294,4.0,9.0,100,0.09,,,0.97,6.000000,,2013-04-01 01:03:00,
2013-03-31 20:33:00,55.0,55.0,-100.00,WNW,303,3.0,9.0,100,0.00,,,0.95,0.000000,,2013-04-01 01:33:00,
2013-03-31 20:43:00,55.0,55.0,-100.00,WNW,303,3.0,9.0,100,0.00,,,0.95,0.000000,,2013-04-01 01:43:00,
2013-03-31 20:53:00,55.0,55.0,-100.00,WNW,303,3.0,9.0,100,0.00,,,0.95,0.000000,,2013-04-01 01:53:00,
2013-03-31 21:03:00,55.0,55.0,-100.00,WNW,303,3.0,9.0,100,0.00,,,0.95,0.000000,,2013-04-01 02:03:00,
2013-03-31 21:33:00,54.0,54.0,-100.00,NW,314,2.0,9.0,100,0.00,,,0.89,0.000000,,2013-04-01 02:33:00,
2013-03-31 21:43:00,54.0,54.0,-100.00,NW,314,2.0,9.0,100,0.00,,,0.89,0.000000,,2013-04-01 02:43:00,
2013-03-31 21:53:00,54.0,54.0,-100.00,NW,314,2.0,9.0,100,0.00,,,0.89,0.000000,,2013-04-01 02:53:00,
2013-03-31 22:03:00,54.0,54.0,-100.00,NW,314,2.0,9.0,100,0.00,,,0.89,0.000000,,2013-04-01 03:03:00,
2013-03-31 22:35:00,53.0,53.0,-100.00,NW,319,2.0,7.0,100,0.00,,,0.75,0.000000,,2013-04-01 03:35:00,
2013-03-31 22:43:00,53.0,53.0,-100.00,NW,319,2.0,7.0,100,0.00,,,0.75,0.000000,,2013-04-01 03:43:00,
2013-03-31 22:53:00,53.0,53.0,-100.00,NW,319,2.0,7.0,100,0.00,,,0.75,0.000000,,2013-04-01 03:53:00,
2013-03-31 23:03:00,53.0,53.0,-100.00,NW,319,2.0,7.0,100,0.00,,,0.75,0.000000,,2013-04-01 04:03:00,
2013-03-31 23:33:00,52.0,52.0,-100.00,NNW,338,3.0,6.0,100,0.00,,,0.68,0.000000,,2013-04-01 04:33:00,
2013-03-31 23:44:00,52.0,52.0,-100.00,NNW,338,3.0,6.0,100,0.00,,,0.68,0.000000,,2013-04-01 04:44:00,
2013-03-31 23:53:00,52.0,52.0,-100.00,NNW,338,3.0,6.0,100,0.00,,,0.68,0.000000,,2013-04-01 04:53:00,